createdAt,value
2019-02-27T00:00:09.147Z,1025.76
2019-02-27T00:01:06.955Z,1025.79
2019-02-27T00:02:06.845Z,1025.75
2019-02-27T00:03:06.818Z,1025.79
2019-02-27T00:04:06.755Z,1025.80
2019-02-27T00:05:08.390Z,1025.73
2019-02-27T00:06:06.677Z,1025.76
2019-02-27T00:07:06.648Z,1025.76
2019-02-27T00:08:06.590Z,1025.75
2019-02-27T00:09:06.525Z,1025.72
2019-02-27T00:10:06.816Z,1025.72
2019-02-27T00:11:06.435Z,1025.70
2019-02-27T00:12:06.406Z,1025.70
2019-02-27T00:13:06.379Z,1025.67
2019-02-27T00:14:06.308Z,1025.67
2019-02-27T00:15:06.265Z,1025.67
2019-02-27T00:16:06.210Z,1025.67
2019-02-27T00:17:08.180Z,1025.64
2019-02-27T00:18:06.152Z,1025.62
2019-02-27T00:19:06.089Z,1025.63
2019-02-27T00:20:06.043Z,1025.64
2019-02-27T00:21:10.155Z,1025.61
2019-02-27T00:22:05.966Z,1025.60
2019-02-27T00:23:05.933Z,1025.62
2019-02-27T00:24:05.891Z,1025.57
2019-02-27T00:25:05.811Z,1025.54
2019-02-27T00:26:08.748Z,1025.55
2019-02-27T00:27:05.742Z,1025.54
2019-02-27T00:28:05.687Z,1025.50
2019-02-27T00:29:05.680Z,1025.49
2019-02-27T00:30:05.938Z,1025.48
2019-02-27T00:31:05.553Z,1025.45
2019-02-27T00:32:05.520Z,1025.46
2019-02-27T00:33:05.472Z,1025.45
2019-02-27T00:34:05.429Z,1025.46
2019-02-27T00:35:07.279Z,1025.47
2019-02-27T00:36:05.329Z,1025.48
2019-02-27T00:37:05.273Z,1025.45
2019-02-27T00:38:05.241Z,1025.53
2019-02-27T00:39:05.217Z,1025.49
2019-02-27T00:40:05.625Z,1025.44
2019-02-27T00:41:05.116Z,1025.43
2019-02-27T00:42:05.061Z,1025.47
2019-02-27T00:43:05.020Z,1025.43
2019-02-27T00:44:05.022Z,1025.40
2019-02-27T00:45:07.172Z,1025.43
2019-02-27T00:46:04.892Z,1025.45
2019-02-27T00:47:04.837Z,1025.45
2019-02-27T00:48:04.816Z,1025.46
2019-02-27T00:49:04.743Z,1025.41
2019-02-27T00:50:06.545Z,1025.43
2019-02-27T00:51:04.668Z,1025.42
2019-02-27T00:52:04.621Z,1025.37
2019-02-27T00:53:04.580Z,1025.36
2019-02-27T00:54:04.527Z,1025.33
2019-02-27T00:55:05.252Z,1025.33
2019-02-27T00:56:04.431Z,1025.33
2019-02-27T00:57:04.392Z,1025.35
2019-02-27T00:58:04.354Z,1025.32
2019-02-27T00:59:04.310Z,1025.29
2019-02-27T01:00:06.508Z,1025.24
2019-02-27T01:01:04.214Z,1025.28
2019-02-27T01:02:04.178Z,1025.25
2019-02-27T01:03:04.140Z,1025.22
2019-02-27T01:04:04.095Z,1025.22
2019-02-27T01:05:06.196Z,1025.24
2019-02-27T01:06:04.004Z,1025.21
2019-02-27T01:07:03.972Z,1025.27
2019-02-27T01:08:03.901Z,1025.27
2019-02-27T01:09:06.171Z,1025.25
2019-02-27T01:10:03.813Z,1025.21
2019-02-27T01:11:03.810Z,1025.20
2019-02-27T01:12:03.729Z,1025.17
2019-02-27T01:13:03.692Z,1025.19
2019-02-27T01:14:04.148Z,1025.17
2019-02-27T01:15:03.601Z,1025.17
2019-02-27T01:16:03.549Z,1025.16
2019-02-27T01:17:03.532Z,1025.16
2019-02-27T01:18:03.458Z,1025.13
2019-02-27T01:19:04.658Z,1025.14
2019-02-27T01:20:03.363Z,1025.13
2019-02-27T01:21:03.321Z,1025.11
2019-02-27T01:22:03.291Z,1025.12
2019-02-27T01:23:03.250Z,1025.11
2019-02-27T01:24:03.218Z,1025.07
2019-02-27T01:25:03.168Z,1025.05
2019-02-27T01:26:03.107Z,1025.03
2019-02-27T01:27:04.602Z,1024.99
2019-02-27T01:28:03.006Z,1024.97
2019-02-27T01:29:03.000Z,1024.99
2019-02-27T01:30:02.916Z,1024.96
2019-02-27T01:31:02.886Z,1024.96
2019-02-27T01:32:02.833Z,1024.95
2019-02-27T01:33:04.166Z,1024.95
2019-02-27T01:34:02.743Z,1024.93
2019-02-27T01:35:02.748Z,1024.94
2019-02-27T01:36:02.653Z,1024.99
2019-02-27T01:37:02.624Z,1024.96
2019-02-27T01:38:05.009Z,1024.93
2019-02-27T01:39:02.532Z,1024.94
2019-02-27T01:40:02.479Z,1024.89
2019-02-27T01:41:02.445Z,1024.90
2019-02-27T01:42:02.392Z,1024.88
2019-02-27T01:43:05.530Z,1024.88
2019-02-27T01:44:02.306Z,1024.85
2019-02-27T01:45:02.256Z,1024.83
2019-02-27T01:46:02.230Z,1024.84
2019-02-27T01:47:02.940Z,1024.83
2019-02-27T01:48:02.112Z,1024.82
2019-02-27T01:49:02.107Z,1024.79
2019-02-27T01:50:02.043Z,1024.83
2019-02-27T01:51:01.991Z,1024.82
2019-02-27T01:52:02.236Z,1024.81
2019-02-27T01:53:01.925Z,1024.76
2019-02-27T01:54:01.850Z,1024.77
2019-02-27T01:55:01.809Z,1024.77
2019-02-27T01:56:01.754Z,1024.75
2019-02-27T01:57:02.953Z,1024.74
2019-02-27T01:58:01.678Z,1024.73
2019-02-27T01:59:01.653Z,1024.73
2019-02-27T02:00:01.581Z,1024.75
2019-02-27T02:01:01.546Z,1024.75
2019-02-27T02:02:03.529Z,1024.78
2019-02-27T02:03:01.442Z,1024.78
2019-02-27T02:04:01.427Z,1024.74
2019-02-27T02:05:01.341Z,1024.75
2019-02-27T02:06:01.306Z,1024.74
2019-02-27T02:07:01.266Z,1024.72
2019-02-27T02:08:01.217Z,1024.66
2019-02-27T02:09:01.202Z,1024.68
2019-02-27T02:10:01.163Z,1024.69
2019-02-27T02:11:01.399Z,1024.63
2019-02-27T02:12:01.036Z,1024.62
2019-02-27T02:13:01.020Z,1024.60
2019-02-27T02:14:00.959Z,1024.59
2019-02-27T02:15:00.933Z,1024.56
2019-02-27T02:16:01.487Z,1024.58
2019-02-27T02:17:00.831Z,1024.53
2019-02-27T02:18:00.769Z,1024.55
2019-02-27T02:19:00.721Z,1024.51
2019-02-27T02:20:00.684Z,1024.47
2019-02-27T02:21:01.641Z,1024.50
2019-02-27T02:22:00.605Z,1024.45
2019-02-27T02:23:00.536Z,1024.44
2019-02-27T02:24:00.501Z,1024.40
2019-02-27T02:25:00.464Z,1024.41
2019-02-27T02:26:01.264Z,1024.36
2019-02-27T02:27:00.371Z,1024.33
2019-02-27T02:28:00.343Z,1024.31
2019-02-27T02:29:00.283Z,1024.27
2019-02-27T02:30:00.498Z,1024.27
2019-02-27T02:31:05.028Z,1024.24
2019-02-27T02:32:00.151Z,1024.25
2019-02-27T02:33:00.089Z,1024.23
2019-02-27T02:34:05.159Z,1024.22
2019-02-27T02:35:00.015Z,1024.20
2019-02-27T02:35:59.998Z,1024.18
2019-02-27T02:37:02.464Z,1024.12
2019-02-27T02:37:59.860Z,1024.13
2019-02-27T02:38:59.833Z,1024.11
2019-02-27T02:39:59.822Z,1024.08
2019-02-27T02:40:59.743Z,1024.09
2019-02-27T02:41:59.684Z,1024.06
2019-02-27T02:43:03.090Z,1024.01
2019-02-27T02:43:59.600Z,1024.03
2019-02-27T02:44:59.554Z,1024.00
2019-02-27T02:45:59.538Z,1024.00
2019-02-27T02:46:59.470Z,1023.98
2019-02-27T02:47:59.449Z,1023.97
2019-02-27T02:49:03.151Z,1023.99
2019-02-27T02:49:59.350Z,1023.92
2019-02-27T02:50:59.287Z,1023.94
2019-02-27T02:52:04.541Z,1023.95
2019-02-27T02:52:59.206Z,1023.90
2019-02-27T02:54:01.782Z,1023.95
2019-02-27T02:54:59.106Z,1023.95
2019-02-27T02:55:59.079Z,1023.95
2019-02-27T02:57:00.524Z,1023.94
2019-02-27T02:57:58.982Z,1023.92
2019-02-27T02:58:58.920Z,1023.93
2019-02-27T03:00:00.151Z,1023.95
2019-02-27T03:00:58.839Z,1023.92
2019-02-27T03:01:58.791Z,1023.92
2019-02-27T03:03:00.978Z,1023.88
2019-02-27T03:03:58.694Z,1023.84
2019-02-27T03:04:58.672Z,1023.82
2019-02-27T03:05:59.679Z,1023.81
2019-02-27T03:06:58.570Z,1023.81
2019-02-27T03:07:58.532Z,1023.79
2019-02-27T03:08:58.491Z,1023.75
2019-02-27T03:09:58.428Z,1023.78
2019-02-27T03:10:58.397Z,1023.74
2019-02-27T03:11:58.332Z,1023.71
2019-02-27T03:12:58.284Z,1023.71
2019-02-27T03:13:58.273Z,1023.68
2019-02-27T03:14:58.193Z,1023.70
2019-02-27T03:16:04.272Z,1023.66
2019-02-27T03:16:58.096Z,1023.65
2019-02-27T03:17:58.063Z,1023.65
2019-02-27T03:18:58.015Z,1023.60
2019-02-27T03:19:58.001Z,1023.60
2019-02-27T03:20:57.937Z,1023.61
2019-02-27T03:22:03.250Z,1023.59
2019-02-27T03:22:57.865Z,1023.58
2019-02-27T03:23:57.800Z,1023.59
2019-02-27T03:25:03.510Z,1023.58
2019-02-27T03:25:57.696Z,1023.58
2019-02-27T03:26:57.655Z,1023.57
2019-02-27T03:27:57.619Z,1023.52
2019-02-27T03:28:57.590Z,1023.52
2019-02-27T03:29:57.511Z,1023.50
2019-02-27T03:30:57.490Z,1023.50
2019-02-27T03:32:00.375Z,1023.45
2019-02-27T03:32:57.408Z,1023.46
2019-02-27T03:34:05.719Z,1023.43
2019-02-27T03:34:57.326Z,1023.45
2019-02-27T03:35:59.889Z,1023.43
2019-02-27T03:36:57.190Z,1023.41
2019-02-27T03:37:57.163Z,1023.43
2019-02-27T03:38:59.170Z,1023.43
2019-02-27T03:39:57.089Z,1023.43
2019-02-27T03:40:57.024Z,1023.43
2019-02-27T03:41:59.335Z,1023.41
2019-02-27T03:42:56.932Z,1023.40
2019-02-27T03:43:56.883Z,1023.40
2019-02-27T03:44:57.185Z,1023.40
2019-02-27T03:45:56.796Z,1023.39
2019-02-27T03:46:56.746Z,1023.40
2019-02-27T03:47:56.694Z,1023.41
2019-02-27T03:49:02.926Z,1023.39
2019-02-27T03:49:56.637Z,1023.44
2019-02-27T03:50:56.572Z,1023.44
2019-02-27T03:51:59.691Z,1023.42
2019-02-27T03:52:56.474Z,1023.43
2019-02-27T03:53:56.439Z,1023.45
2019-02-27T03:54:58.073Z,1023.42
2019-02-27T03:55:56.363Z,1023.47
2019-02-27T03:56:56.316Z,1023.42
2019-02-27T03:57:56.240Z,1023.44
2019-02-27T03:58:56.206Z,1023.40
2019-02-27T03:59:56.150Z,1023.41
2019-02-27T04:00:56.132Z,1023.39
2019-02-27T04:01:56.053Z,1023.35
2019-02-27T04:02:56.046Z,1023.38
2019-02-27T04:03:56.004Z,1023.37
2019-02-27T04:04:55.936Z,1023.38
2019-02-27T04:05:55.888Z,1023.40
2019-02-27T04:06:56.455Z,1023.40
2019-02-27T04:07:55.788Z,1023.39
2019-02-27T04:08:55.736Z,1023.37
2019-02-27T04:09:56.431Z,1023.37
2019-02-27T04:10:55.684Z,1023.34
2019-02-27T04:11:55.629Z,1023.35
2019-02-27T04:12:55.571Z,1023.38
2019-02-27T04:14:03.328Z,1023.34
2019-02-27T04:14:55.474Z,1023.35
2019-02-27T04:15:55.453Z,1023.39
2019-02-27T04:16:55.391Z,1023.40
2019-02-27T04:17:55.331Z,1023.38
2019-02-27T04:18:55.291Z,1023.36
2019-02-27T04:19:55.237Z,1023.35
2019-02-27T04:20:55.203Z,1023.34
2019-02-27T04:22:00.476Z,1023.37
2019-02-27T04:22:55.115Z,1023.36
2019-02-27T04:23:55.070Z,1023.33
2019-02-27T04:24:56.855Z,1023.30
2019-02-27T04:25:54.973Z,1023.32
2019-02-27T04:26:54.945Z,1023.32
2019-02-27T04:27:55.611Z,1023.29
2019-02-27T04:28:54.827Z,1023.28
2019-02-27T04:29:54.785Z,1023.27
2019-02-27T04:30:54.730Z,1023.26
2019-02-27T04:31:54.703Z,1023.26
2019-02-27T04:32:54.676Z,1023.26
2019-02-27T04:33:59.833Z,1023.24
2019-02-27T04:34:54.558Z,1023.26
2019-02-27T04:35:54.507Z,1023.22
2019-02-27T04:36:54.500Z,1023.22
2019-02-27T04:37:54.912Z,1023.24
2019-02-27T04:38:54.376Z,1023.24
2019-02-27T04:39:54.355Z,1023.27
2019-02-27T04:40:54.274Z,1023.26
2019-02-27T04:41:54.250Z,1023.27
2019-02-27T04:42:54.193Z,1023.27
2019-02-27T04:43:54.155Z,1023.27
2019-02-27T04:44:54.132Z,1023.25
2019-02-27T04:45:54.047Z,1023.26
2019-02-27T04:46:55.088Z,1023.27
2019-02-27T04:47:53.968Z,1023.25
2019-02-27T04:48:53.920Z,1023.26
2019-02-27T04:49:53.914Z,1023.26
2019-02-27T04:50:53.822Z,1023.23
2019-02-27T04:51:53.778Z,1023.24
2019-02-27T04:52:57.604Z,1023.25
2019-02-27T04:53:53.682Z,1023.26
2019-02-27T04:54:53.650Z,1023.27
2019-02-27T04:55:53.625Z,1023.25
2019-02-27T04:56:55.088Z,1023.26
2019-02-27T04:57:53.501Z,1023.23
2019-02-27T04:58:53.475Z,1023.24
2019-02-27T04:59:53.415Z,1023.18
2019-02-27T05:00:53.393Z,1023.19
2019-02-27T05:01:53.316Z,1023.13
2019-02-27T05:02:53.999Z,1023.16
2019-02-27T05:03:53.241Z,1023.15
2019-02-27T05:04:53.204Z,1023.13
2019-02-27T05:05:53.134Z,1023.15
2019-02-27T05:06:53.117Z,1023.13
2019-02-27T05:07:54.330Z,1023.14
2019-02-27T05:08:53.015Z,1023.13
2019-02-27T05:09:52.976Z,1023.14
2019-02-27T05:10:52.927Z,1023.10
2019-02-27T05:11:52.857Z,1023.07
2019-02-27T05:12:52.810Z,1023.09
2019-02-27T05:13:54.332Z,1023.05
2019-02-27T05:14:52.718Z,1023.06
2019-02-27T05:15:52.703Z,1023.04
2019-02-27T05:16:52.643Z,1023.02
2019-02-27T05:17:53.019Z,1023.03
2019-02-27T05:18:52.555Z,1022.99
2019-02-27T05:19:52.538Z,1023.01
2019-02-27T05:20:52.460Z,1022.99
2019-02-27T05:21:53.088Z,1023.02
2019-02-27T05:22:52.344Z,1022.99
2019-02-27T05:23:52.327Z,1023.03
2019-02-27T05:24:52.258Z,1023.04
2019-02-27T05:25:52.240Z,1023.01
2019-02-27T05:26:52.187Z,1023.01
2019-02-27T05:27:52.132Z,1023.01
2019-02-27T05:28:52.094Z,1023.03
2019-02-27T05:29:52.035Z,1023.03
2019-02-27T05:30:52.018Z,1023.02
2019-02-27T05:31:53.153Z,1023.04
2019-02-27T05:32:51.912Z,1022.99
2019-02-27T05:33:51.862Z,1022.96
2019-02-27T05:34:51.796Z,1022.91
2019-02-27T05:35:51.766Z,1022.90
2019-02-27T05:36:51.748Z,1022.90
2019-02-27T05:37:51.673Z,1022.94
2019-02-27T05:38:51.624Z,1022.90
2019-02-27T05:39:51.758Z,1022.91
2019-02-27T05:40:51.540Z,1022.92
2019-02-27T05:41:51.506Z,1022.88
2019-02-27T05:42:51.436Z,1022.88
2019-02-27T05:43:51.412Z,1022.88
2019-02-27T05:44:55.534Z,1022.86
2019-02-27T05:45:51.294Z,1022.87
2019-02-27T05:46:51.249Z,1022.88
2019-02-27T05:47:51.203Z,1022.85
2019-02-27T05:48:53.361Z,1022.84
2019-02-27T05:49:51.114Z,1022.85
2019-02-27T05:50:51.079Z,1022.84
2019-02-27T05:51:51.033Z,1022.86
2019-02-27T05:52:51.002Z,1022.86
2019-02-27T05:53:50.927Z,1022.86
2019-02-27T05:54:50.877Z,1022.85
2019-02-27T05:55:50.834Z,1022.86
2019-02-27T05:56:50.786Z,1022.87
2019-02-27T05:57:50.772Z,1022.88
2019-02-27T05:58:50.721Z,1022.87
2019-02-27T05:59:50.664Z,1022.90
2019-02-27T06:00:50.604Z,1022.90
2019-02-27T06:01:50.579Z,1022.87
2019-02-27T06:02:50.512Z,1022.89
2019-02-27T06:03:52.255Z,1022.88
2019-02-27T06:04:50.430Z,1022.87
2019-02-27T06:05:50.374Z,1022.81
2019-02-27T06:06:50.324Z,1022.82
2019-02-27T06:07:50.315Z,1022.86
2019-02-27T06:08:50.242Z,1022.83
2019-02-27T06:09:50.212Z,1022.84
2019-02-27T06:10:55.106Z,1022.83
2019-02-27T06:11:50.105Z,1022.83
2019-02-27T06:12:50.092Z,1022.81
2019-02-27T06:13:50.008Z,1022.85
2019-02-27T06:14:49.989Z,1022.82
2019-02-27T06:15:49.922Z,1022.83
2019-02-27T06:16:49.871Z,1022.91
2019-02-27T06:17:49.962Z,1022.84
2019-02-27T06:18:49.794Z,1022.82
2019-02-27T06:19:49.755Z,1022.78
2019-02-27T06:20:49.679Z,1022.79
2019-02-27T06:21:49.635Z,1022.75
2019-02-27T06:22:49.592Z,1022.78
2019-02-27T06:23:49.547Z,1022.75
2019-02-27T06:24:49.521Z,1022.79
2019-02-27T06:25:49.455Z,1022.74
2019-02-27T06:26:49.398Z,1022.76
2019-02-27T06:27:49.379Z,1022.74
2019-02-27T06:28:49.338Z,1022.78
2019-02-27T06:29:49.301Z,1022.74
2019-02-27T06:30:49.219Z,1022.76
2019-02-27T06:31:49.179Z,1022.79
2019-02-27T06:32:49.128Z,1022.74
2019-02-27T06:33:49.102Z,1022.74
2019-02-27T06:34:49.039Z,1022.74
2019-02-27T06:35:49.502Z,1022.75
2019-02-27T06:36:48.984Z,1022.74
2019-02-27T06:37:50.760Z,1022.75
2019-02-27T06:38:48.841Z,1022.74
2019-02-27T06:39:48.806Z,1022.74
2019-02-27T06:40:48.774Z,1022.78
2019-02-27T06:41:49.782Z,1022.83
2019-02-27T06:42:53.510Z,1022.74
2019-02-27T06:43:48.630Z,1022.79
2019-02-27T06:44:48.577Z,1022.79
2019-02-27T06:45:48.565Z,1022.77
2019-02-27T06:46:51.038Z,1022.82
2019-02-27T06:47:48.439Z,1022.77
2019-02-27T06:48:48.388Z,1022.81
2019-02-27T06:49:49.014Z,1022.80
2019-02-27T06:50:48.297Z,1022.84
2019-02-27T06:51:48.272Z,1022.82
2019-02-27T06:52:48.205Z,1022.82
2019-02-27T06:53:48.147Z,1022.81
2019-02-27T06:54:52.143Z,1022.83
2019-02-27T06:55:48.079Z,1022.87
2019-02-27T06:56:48.064Z,1022.81
2019-02-27T06:57:47.981Z,1022.89
2019-02-27T06:58:50.119Z,1022.85
2019-02-27T06:59:47.884Z,1022.84
2019-02-27T07:00:47.829Z,1022.89
2019-02-27T07:01:48.113Z,1022.91
2019-02-27T07:02:47.762Z,1022.91
2019-02-27T07:03:47.711Z,1022.92
2019-02-27T07:04:47.652Z,1022.88
2019-02-27T07:05:48.272Z,1022.91
2019-02-27T07:06:47.584Z,1022.94
2019-02-27T07:07:47.527Z,1022.96
2019-02-27T07:08:47.481Z,1022.99
2019-02-27T07:09:47.443Z,1022.97
2019-02-27T07:10:47.388Z,1022.96
2019-02-27T07:11:48.947Z,1023.01
2019-02-27T07:12:47.285Z,1022.98
2019-02-27T07:13:47.281Z,1022.97
2019-02-27T07:14:47.208Z,1022.94
2019-02-27T07:15:48.168Z,1022.96
2019-02-27T07:16:47.168Z,1022.95
2019-02-27T07:17:47.082Z,1022.93
2019-02-27T07:18:47.061Z,1022.87
2019-02-27T07:19:47.447Z,1022.87
2019-02-27T07:20:46.955Z,1022.89
2019-02-27T07:21:46.900Z,1022.93
2019-02-27T07:22:46.891Z,1022.94
2019-02-27T07:23:46.847Z,1022.95
2019-02-27T07:24:46.779Z,1022.95
2019-02-27T07:25:46.733Z,1022.94
2019-02-27T07:26:47.544Z,1022.96
2019-02-27T07:27:46.657Z,1022.97
2019-02-27T07:28:46.639Z,1022.94
2019-02-27T07:29:46.576Z,1022.96
2019-02-27T07:30:46.550Z,1022.98
2019-02-27T07:31:46.488Z,1023.02
2019-02-27T07:32:46.484Z,1023.03
2019-02-27T07:33:46.402Z,1023.05
2019-02-27T07:34:46.763Z,1023.12
2019-02-27T07:35:46.326Z,1023.11
2019-02-27T07:36:46.284Z,1023.06
2019-02-27T07:37:48.021Z,1023.06
2019-02-27T07:38:46.224Z,1023.10
2019-02-27T07:39:46.168Z,1023.08
2019-02-27T07:40:46.145Z,1023.10
2019-02-27T07:41:46.081Z,1023.07
2019-02-27T07:42:46.082Z,1023.07
2019-02-27T07:43:46.026Z,1023.07
2019-02-27T07:44:45.988Z,1023.06
2019-02-27T07:45:46.229Z,1023.08
2019-02-27T07:46:45.881Z,1023.13
2019-02-27T07:47:45.874Z,1023.10
2019-02-27T07:48:45.891Z,1023.13
2019-02-27T07:49:45.777Z,1023.12
2019-02-27T07:50:48.134Z,1023.11
2019-02-27T07:51:45.687Z,1023.16
2019-02-27T07:52:45.641Z,1023.13
2019-02-27T07:53:45.603Z,1023.13
2019-02-27T07:54:45.593Z,1023.14
2019-02-27T07:55:47.317Z,1023.17
2019-02-27T07:56:45.498Z,1023.18
2019-02-27T07:57:45.448Z,1023.11
2019-02-27T07:58:45.416Z,1023.11
2019-02-27T07:59:45.376Z,1023.14
2019-02-27T08:00:47.086Z,1023.17
2019-02-27T08:01:45.301Z,1023.21
2019-02-27T08:02:45.259Z,1023.25
2019-02-27T08:03:45.826Z,1023.26
2019-02-27T08:04:45.180Z,1023.33
2019-02-27T08:05:45.173Z,1023.36
2019-02-27T08:06:45.138Z,1023.38
2019-02-27T08:07:48.641Z,1023.40
2019-02-27T08:08:45.043Z,1023.44
2019-02-27T08:09:44.996Z,1023.45
2019-02-27T08:10:45.374Z,1023.48
2019-02-27T08:11:47.319Z,1023.48
2019-02-27T08:12:44.894Z,1023.54
2019-02-27T08:13:44.853Z,1023.58
2019-02-27T08:14:44.805Z,1023.62
2019-02-27T08:15:44.768Z,1023.60
2019-02-27T08:16:44.751Z,1023.65
2019-02-27T08:17:44.722Z,1023.67
2019-02-27T08:18:44.662Z,1023.72
2019-02-27T08:19:45.299Z,1023.72
2019-02-27T08:20:44.584Z,1023.73
2019-02-27T08:21:44.573Z,1023.65
2019-02-27T08:22:44.518Z,1023.70
2019-02-27T08:23:44.485Z,1023.68
2019-02-27T08:24:44.468Z,1023.68
2019-02-27T08:25:44.405Z,1023.68
2019-02-27T08:26:44.359Z,1023.68
2019-02-27T08:27:44.335Z,1023.67
2019-02-27T08:28:44.299Z,1023.65
2019-02-27T08:29:44.300Z,1023.70
2019-02-27T08:30:44.219Z,1023.66
2019-02-27T08:31:44.192Z,1023.67
2019-02-27T08:32:44.147Z,1023.67
2019-02-27T08:33:44.121Z,1023.73
2019-02-27T08:34:44.104Z,1023.74
2019-02-27T08:35:44.048Z,1023.76
2019-02-27T08:36:44.011Z,1023.78
2019-02-27T08:37:43.975Z,1023.81
2019-02-27T08:38:43.961Z,1023.84
2019-02-27T08:39:43.902Z,1023.84
2019-02-27T08:40:43.870Z,1023.83
2019-02-27T08:41:43.827Z,1023.89
2019-02-27T08:42:43.813Z,1023.84
2019-02-27T08:43:43.776Z,1023.91
2019-02-27T08:44:45.756Z,1023.94
2019-02-27T08:45:43.683Z,1024.04
2019-02-27T08:46:43.674Z,1024.02
2019-02-27T08:47:44.302Z,1024.01
2019-02-27T08:48:43.621Z,1024.00
2019-02-27T08:49:43.569Z,1024.01
2019-02-27T08:50:43.512Z,1023.91
2019-02-27T08:51:43.488Z,1023.89
2019-02-27T08:52:44.529Z,1023.87
2019-02-27T08:53:43.408Z,1023.85
2019-02-27T08:54:43.418Z,1023.80
2019-02-27T08:55:43.361Z,1023.76
2019-02-27T08:56:44.037Z,1023.75
2019-02-27T08:57:43.297Z,1023.70
2019-02-27T08:58:43.255Z,1023.70
2019-02-27T08:59:43.235Z,1023.69
2019-02-27T09:00:47.142Z,1023.72
2019-02-27T09:01:43.153Z,1023.73
2019-02-27T09:02:43.111Z,1023.70
2019-02-27T09:03:43.088Z,1023.67
2019-02-27T09:04:45.394Z,1023.70
2019-02-27T09:05:43.023Z,1023.70
2019-02-27T09:06:43.044Z,1023.66
2019-02-27T09:07:43.180Z,1023.68
2019-02-27T09:08:44.041Z,1023.65
2019-02-27T09:09:42.970Z,1023.61
2019-02-27T09:10:42.878Z,1023.55
2019-02-27T09:11:42.947Z,1023.51
2019-02-27T09:12:45.384Z,1023.47
2019-02-27T09:13:42.775Z,1023.44
2019-02-27T09:14:42.719Z,1023.45
2019-02-27T09:15:42.712Z,1023.43
2019-02-27T09:16:42.661Z,1023.41
2019-02-27T09:17:42.629Z,1023.39
2019-02-27T09:18:44.168Z,1023.34
2019-02-27T09:19:45.443Z,1023.33
2019-02-27T09:20:42.543Z,1023.32
2019-02-27T09:21:42.503Z,1023.32
2019-02-27T09:22:42.546Z,1023.32
2019-02-27T09:23:42.649Z,1023.31
2019-02-27T09:24:42.461Z,1023.34
2019-02-27T09:25:42.432Z,1023.30
2019-02-27T09:26:42.474Z,1023.26
2019-02-27T09:27:42.310Z,1023.25
2019-02-27T09:28:44.484Z,1023.23
2019-02-27T09:29:42.560Z,1023.21
2019-02-27T09:30:42.264Z,1023.19
2019-02-27T09:31:50.532Z,1023.15
2019-02-27T09:32:43.353Z,1023.12
2019-02-27T09:33:42.168Z,1023.11
2019-02-27T09:34:42.212Z,1023.10
2019-02-27T09:35:42.137Z,1023.09
2019-02-27T09:36:43.354Z,1023.05
2019-02-27T09:37:41.974Z,1023.06
2019-02-27T09:38:41.981Z,1023.04
2019-02-27T09:39:41.931Z,1023.07
2019-02-27T09:40:41.885Z,1023.00
2019-02-27T09:41:46.133Z,1023.02
2019-02-27T09:42:41.799Z,1023.08
2019-02-27T09:43:41.786Z,1023.07
2019-02-27T09:44:41.733Z,1023.04
2019-02-27T09:45:46.198Z,1022.96
2019-02-27T09:46:41.779Z,1023.03
2019-02-27T09:47:41.676Z,1023.03
2019-02-27T09:48:41.608Z,1023.01
2019-02-27T09:49:41.624Z,1022.97
2019-02-27T09:50:41.735Z,1022.97
2019-02-27T09:51:41.541Z,1022.94
2019-02-27T09:52:41.510Z,1022.90
2019-02-27T09:53:41.460Z,1022.92
2019-02-27T09:54:41.409Z,1022.89
2019-02-27T09:55:41.520Z,1022.90
2019-02-27T09:56:41.349Z,1022.89
2019-02-27T09:57:41.623Z,1022.88
2019-02-27T09:58:45.050Z,1022.89
2019-02-27T09:59:42.333Z,1022.88
2019-02-27T10:00:41.900Z,1022.91
2019-02-27T10:01:41.389Z,1022.95
2019-02-27T10:02:43.154Z,1022.92
2019-02-27T10:03:41.158Z,1022.96
2019-02-27T10:04:41.110Z,1022.98
2019-02-27T10:05:41.125Z,1022.97
2019-02-27T10:06:42.781Z,1022.97
2019-02-27T10:07:41.004Z,1022.97
2019-02-27T10:08:40.962Z,1022.98
2019-02-27T10:09:40.932Z,1022.99
2019-02-27T10:10:44.727Z,1022.94
2019-02-27T10:11:40.923Z,1022.90
2019-02-27T10:12:42.291Z,1022.89
2019-02-27T10:13:40.846Z,1022.88
2019-02-27T10:14:40.773Z,1022.91
2019-02-27T10:15:40.768Z,1022.90
2019-02-27T10:16:40.729Z,1022.91
2019-02-27T10:17:41.141Z,1022.91
2019-02-27T10:18:40.675Z,1022.88
2019-02-27T10:19:40.628Z,1022.86
2019-02-27T10:20:40.580Z,1022.88
2019-02-27T10:21:41.333Z,1022.85
2019-02-27T10:22:40.522Z,1022.86
2019-02-27T10:23:40.529Z,1022.82
2019-02-27T10:24:40.481Z,1022.77
2019-02-27T10:25:43.288Z,1022.75
2019-02-27T10:26:40.392Z,1022.77
2019-02-27T10:27:40.352Z,1022.77
2019-02-27T10:28:40.328Z,1022.79
2019-02-27T10:29:40.324Z,1022.78
2019-02-27T10:30:40.262Z,1022.78
2019-02-27T10:31:40.241Z,1022.73
2019-02-27T10:32:40.217Z,1022.76
2019-02-27T10:33:42.993Z,1022.77
2019-02-27T10:34:40.164Z,1022.75
2019-02-27T10:35:40.108Z,1022.73
2019-02-27T10:36:40.081Z,1022.73
2019-02-27T10:37:40.143Z,1022.75
2019-02-27T10:38:40.563Z,1022.72
2019-02-27T10:39:39.976Z,1022.69
2019-02-27T10:40:39.973Z,1022.67
2019-02-27T10:41:39.949Z,1022.64
2019-02-27T10:42:39.905Z,1022.63
2019-02-27T10:43:39.857Z,1022.63
2019-02-27T10:44:39.830Z,1022.64
2019-02-27T10:45:39.821Z,1022.62
2019-02-27T10:46:39.791Z,1022.56
2019-02-27T10:47:39.989Z,1022.52
2019-02-27T10:48:39.713Z,1022.53
2019-02-27T10:49:39.675Z,1022.51
2019-02-27T10:50:39.664Z,1022.51
2019-02-27T10:51:41.529Z,1022.45
2019-02-27T10:52:39.589Z,1022.46
2019-02-27T10:53:39.571Z,1022.48
2019-02-27T10:54:39.974Z,1022.42
2019-02-27T10:55:39.488Z,1022.43
2019-02-27T10:56:39.451Z,1022.44
2019-02-27T10:57:39.424Z,1022.38
2019-02-27T10:58:39.385Z,1022.37
2019-02-27T10:59:39.392Z,1022.38
2019-02-27T11:00:39.329Z,1022.38
2019-02-27T11:01:39.350Z,1022.35
2019-02-27T11:02:39.283Z,1022.34
2019-02-27T11:03:39.247Z,1022.30
2019-02-27T11:04:39.608Z,1022.30
2019-02-27T11:05:39.187Z,1022.26
2019-02-27T11:06:39.173Z,1022.23
2019-02-27T11:07:39.112Z,1022.18
2019-02-27T11:08:39.099Z,1022.19
2019-02-27T11:09:41.263Z,1022.10
2019-02-27T11:10:39.056Z,1022.13
2019-02-27T11:11:39.015Z,1022.10
2019-02-27T11:12:38.980Z,1022.07
2019-02-27T11:13:38.932Z,1022.06
2019-02-27T11:14:38.913Z,1022.05
2019-02-27T11:15:41.531Z,1022.03
2019-02-27T11:16:38.881Z,1022.02
2019-02-27T11:17:38.809Z,1022.04
2019-02-27T11:18:38.771Z,1022.00
2019-02-27T11:19:38.771Z,1022.00
2019-02-27T11:20:38.722Z,1021.99
2019-02-27T11:21:38.714Z,1021.96
2019-02-27T11:22:38.657Z,1021.93
2019-02-27T11:23:40.925Z,1021.92
2019-02-27T11:24:38.590Z,1021.95
2019-02-27T11:25:38.563Z,1021.92
2019-02-27T11:26:38.542Z,1021.90
2019-02-27T11:27:38.945Z,1021.89
2019-02-27T11:28:38.480Z,1021.88
2019-02-27T11:29:38.473Z,1021.84
2019-02-27T11:30:38.407Z,1021.85
2019-02-27T11:31:38.376Z,1021.86
2019-02-27T11:32:38.346Z,1021.80
2019-02-27T11:33:38.313Z,1021.80
2019-02-27T11:34:38.318Z,1021.81
2019-02-27T11:35:38.290Z,1021.78
2019-02-27T11:36:38.920Z,1021.79
2019-02-27T11:37:38.236Z,1021.79
2019-02-27T11:38:38.159Z,1021.76
2019-02-27T11:39:38.130Z,1021.77
2019-02-27T11:40:41.752Z,1021.73
2019-02-27T11:41:38.075Z,1021.74
2019-02-27T11:42:38.049Z,1021.73
2019-02-27T11:43:40.791Z,1021.68
2019-02-27T11:44:38.013Z,1021.60
2019-02-27T11:45:37.951Z,1021.61
2019-02-27T11:46:38.231Z,1021.55
2019-02-27T11:47:37.942Z,1021.53
2019-02-27T11:48:37.888Z,1021.47
2019-02-27T11:49:38.777Z,1021.44
2019-02-27T11:50:37.797Z,1021.48
2019-02-27T11:51:37.777Z,1021.46
2019-02-27T11:52:37.754Z,1021.42
2019-02-27T11:53:37.733Z,1021.42
2019-02-27T11:54:37.695Z,1021.38
2019-02-27T11:55:37.654Z,1021.38
2019-02-27T11:56:37.620Z,1021.37
2019-02-27T11:57:37.589Z,1021.33
2019-02-27T11:58:38.505Z,1021.32
2019-02-27T11:59:37.544Z,1021.26
2019-02-27T12:00:37.532Z,1021.20
2019-02-27T12:01:37.473Z,1021.22
2019-02-27T12:02:38.022Z,1021.18
2019-02-27T12:03:37.411Z,1021.15
2019-02-27T12:04:37.402Z,1021.08